Aberdeen, WA

5:14 PM PST on November 28, 2014 (GMT -0800)
Central Park 2 | Change Station
CLOSE
Current Station
Personal Weather Station
Location: Aberdeen, WA
Elevation: 33 ft
Nearby Weather Stations
Active Advisory: Flood Warning, Areal Flood Watch Active Notice: Record Report

Elev 33 ft 46.97 °N, 123.72 °W | Updated 14 minutes ago

Overcast
Overcast
42.3 °F
Feels Like 41 °F
N
3.2
Wind Variable Wind from SW

Today
High -- | Low -- °F
--% Chance of Precip.
Yesterday
High -- | Low -- °F
Precip. -- in
7:36 AM 4:29 PM
Waxing Crescent, 46% visible
Pressure 29.54 in
Visibility 7.0 miles
Clouds Mostly Cloudy 3700 ft
Overcast 5000 ft
Windchill 41 °F
Dew Point 40 °F
Humidity 91%
Rainfall 0.63 in
Snow Depth Not available.
UV 0 out of 12
Pollen .10 out of 12
Air Quality Not available.
Flu Activity Not available.
METAR KHQM 290053Z AUTO 29005KT 7SM -RA BKN037 OVC050 07/04 A2953 RMK AO2 RAB09E20B40 SLP002 P0001 T00670039

More Conditions Fewer Conditions

Pressure 29.54 in
Visibility 7.0 miles
Clouds Mostly Cloudy 3700 ft
Overcast 5000 ft
Windchill 41 °F
Dew Point 40 °F
Humidity 91%
Rainfall 0.63 in
Snow Depth Not available.
UV 0 out of 12
Pollen .10 out of 12
Air Quality Not available.
Flu Activity Not available.
METAR KHQM 290053Z AUTO 29005KT 7SM -RA BKN037 OVC050 07/04 A2953 RMK AO2 RAB09E20B40 SLP002 P0001 T00670039

More Conditions Fewer Conditions

10-Day Weather Forecast

Almanac

Astronomy

Nov. 28, 2014 Rise Set
Actual Time
Civil Twilight
Nautical Twilight
Astronomical Twilight
Moon
Length of Visible Light
Length of Day
Tomorrow will be .
, % of the Moon is Illuminated

Today's Extremes

State Highs State Lows

Community

WunderPhotos

Upload Photos

1,774,361 photos uploaded!

WunderBlogs® & News

Nearby

Air Quality

  Air Quality AQ Index Pollutant
Not available.

Snow Depth

Station Depth Elevation

Earthquake Activity

City Distance Mag. Time & Date
Minimum magnitude displayed is 2.5.

Coastal Water Temperatures

Place Temperature

Nearby Weather Stations